Time;durP1;ratioP1;P1;durP2;ratioP2;P2;SDS_P1;SDS_P2;PMS_P1;PMS_P2;Temp;Humidity;BMP_temperature;BMP_pressure;BME280_temperature;BME280_humidity;BME280_pressure;Samples;Min_cycle;Max_cycle;Signal;HPM_P1;HPM_P2
2023/12/09 00:01:27;;;;;;;77.38;29.17;;;7.40;99.90;;;;;;5093374;28;20156;-44
2023/12/09 00:03:52;;;;;;;69.35;29.00;;;7.40;99.90;;;;;;5089224;28;20043;-44
2023/12/09 00:06:19;;;;;;;72.28;30.27;;;7.40;99.90;;;;;;5089328;28;20036;-44
2023/12/09 00:08:45;;;;;;;73.40;28.00;;;7.40;99.90;;;;;;5091575;28;20050;-43
2023/12/09 00:11:11;;;;;;;68.55;28.88;;;7.40;99.90;;;;;;5091288;28;20127;-44
2023/12/09 00:13:36;;;;;;;66.63;28.35;;;7.40;99.90;;;;;;5090997;28;20039;-44
2023/12/09 00:16:03;;;;;;;77.82;30.15;;;7.40;99.90;;;;;;5092016;28;20043;-43
2023/12/09 00:18:29;;;;;;;69.43;28.92;;;7.40;99.90;;;;;;5092330;28;20055;-44
2023/12/09 00:20:54;;;;;;;68.05;27.70;;;7.40;99.90;;;;;;5092151;28;20469;-44
2023/12/09 00:23:20;;;;;;;70.97;27.83;;;7.40;99.90;;;;;;5092392;28;20507;-44
2023/12/09 00:25:45;;;;;;;82.20;28.25;;;7.40;99.90;;;;;;5072178;28;20044;-44
2023/12/09 00:28:11;;;;;;;64.63;27.05;;;7.40;99.90;;;;;;5074422;28;20040;-45
2023/12/09 00:30:37;;;;;;;63.33;27.38;;;7.40;99.90;;;;;;5090326;28;20306;-44
2023/12/09 00:33:02;;;;;;;58.97;26.40;;;7.40;99.90;;;;;;5091702;28;20047;-44
2023/12/09 00:35:29;;;;;;;60.72;27.25;;;7.40;99.90;;;;;;5065248;28;20127;-45
2023/12/09 00:37:54;;;;;;;61.22;26.35;;;7.50;99.90;;;;;;5085767;28;20135;-44
2023/12/09 00:40:22;;;;;;;66.57;25.20;;;;;;;;;;5084556;28;20040;-44
2023/12/09 00:42:48;;;;;;;64.93;25.75;;;7.50;99.90;;;;;;5087056;28;20048;-45
2023/12/09 00:45:14;;;;;;;64.95;25.02;;;7.40;99.90;;;;;;5082081;28;20121;-44
2023/12/09 00:47:39;;;;;;;56.63;26.23;;;7.40;99.90;;;;;;5084802;28;20351;-43
2023/12/09 00:50:06;;;;;;;55.40;24.27;;;7.50;99.90;;;;;;5084103;28;20040;-43
2023/12/09 00:52:32;;;;;;;65.03;25.85;;;7.50;99.90;;;;;;5082197;28;20470;-44
2023/12/09 00:54:59;;;;;;;56.63;24.45;;;7.50;99.90;;;;;;5075705;28;20112;-43
2023/12/09 00:57:24;;;;;;;59.65;25.80;;;7.50;99.90;;;;;;5082622;28;20032;-44
2023/12/09 00:59:50;;;;;;;74.38;24.58;;;7.50;99.90;;;;;;5084277;28;20109;-43
2023/12/09 01:02:16;;;;;;;57.38;24.27;;;7.50;99.90;;;;;;5084744;28;20044;-44
2023/12/09 01:04:42;;;;;;;63.22;24.00;;;7.50;99.90;;;;;;5091533;28;20083;-43
2023/12/09 01:07:08;;;;;;;53.83;24.38;;;7.50;99.90;;;;;;5087904;28;20044;-43
2023/12/09 01:09:33;;;;;;;52.67;22.92;;;7.40;99.90;;;;;;5086896;28;20040;-43
2023/12/09 01:12:00;;;;;;;60.00;23.38;;;7.50;99.90;;;;;;5082501;28;20583;-44
2023/12/09 01:14:25;;;;;;;55.45;23.52;;;7.50;99.90;;;;;;5089006;28;20083;-44
2023/12/09 01:16:51;;;;;;;59.97;22.98;;;7.50;99.90;;;;;;5089333;28;20068;-43
2023/12/09 01:19:17;;;;;;;52.88;22.50;;;7.40;99.90;;;;;;5090725;28;20082;-44
2023/12/09 01:21:42;;;;;;;47.10;21.55;;;7.50;99.90;;;;;;5086621;28;20044;-43
2023/12/09 01:24:08;;;;;;;54.50;22.55;;;7.50;99.90;;;;;;5093441;28;20481;-44
2023/12/09 01:26:33;;;;;;;62.53;23.70;;;7.50;99.90;;;;;;5092557;28;20040;-44
2023/12/09 01:29:02;;;;;;;60.60;22.45;;;7.50;99.90;;;;;;5093040;28;20032;-43
2023/12/09 01:31:27;;;;;;;50.75;22.75;;;7.60;99.90;;;;;;5092126;28;20069;-44
2023/12/09 01:33:53;;;;;;;55.30;23.23;;;7.50;99.90;;;;;;5091320;28;20126;-44
2023/12/09 01:36:18;;;;;;;51.00;21.80;;;7.60;99.90;;;;;;5093454;28;20196;-44
2023/12/09 01:38:44;;;;;;;56.33;21.67;;;7.50;99.90;;;;;;5092229;28;20032;-44
2023/12/09 01:41:10;;;;;;;54.85;21.83;;;7.50;99.90;;;;;;5093024;28;20052;-45
2023/12/09 01:43:35;;;;;;;48.95;21.05;;;7.50;99.90;;;;;;5089857;28;20059;-43
2023/12/09 01:46:06;;;;;;;49.03;20.83;;;7.50;99.90;;;;;;5091989;28;20458;-44
2023/12/09 01:48:36;;;;;;;59.20;21.60;;;7.50;99.90;;;;;;5090694;28;20040;-44
2023/12/09 01:51:02;;;;;;;49.65;21.20;;;7.60;99.90;;;;;;5089597;28;20043;-43
2023/12/09 01:53:29;;;;;;;48.15;20.67;;;7.60;99.90;;;;;;5088301;28;20097;-45
2023/12/09 01:55:57;;;;;;;51.65;21.98;;;7.50;99.90;;;;;;5092879;28;20042;-44
2023/12/09 01:58:23;;;;;;;47.67;19.70;;;7.50;99.90;;;;;;5089835;28;20494;-44
2023/12/09 02:00:49;;;;;;;48.20;20.75;;;7.50;99.90;;;;;;5089824;28;20044;-44
2023/12/09 02:03:15;;;;;;;50.67;20.20;;;7.50;99.90;;;;;;5090444;28;20036;-44
2023/12/09 02:05:42;;;;;;;44.75;20.17;;;7.50;99.90;;;;;;5086306;28;20097;-43
2023/12/09 02:08:07;;;;;;;52.00;19.83;;;7.50;99.90;;;;;;5092606;28;20035;-43
2023/12/09 02:10:33;;;;;;;55.38;19.65;;;7.60;99.90;;;;;;5091690;28;20036;-45
2023/12/09 02:13:16;;;;;;;56.90;21.35;;;7.50;99.90;;;;;;5091259;28;20113;-44
2023/12/09 02:16:06;;;;;;;54.00;20.60;;;7.50;99.90;;;;;;5089739;28;20040;-44
2023/12/09 02:18:33;;;;;;;47.38;20.55;;;7.50;99.90;;;;;;5077110;28;20055;-43
2023/12/09 02:20:59;;;;;;;47.95;20.05;;;7.50;99.90;;;;;;5089855;28;20036;-44
2023/12/09 02:23:25;;;;;;;46.88;20.00;;;7.50;99.90;;;;;;5088263;28;20040;-43
2023/12/09 02:25:57;;;;;;;46.47;19.02;;;7.50;99.90;;;;;;5088601;28;20135;-44
2023/12/09 02:28:28;;;;;;;49.10;19.05;;;7.50;99.90;;;;;;5087588;28;20126;-45
2023/12/09 02:31:33;;;;;;;53.72;20.60;;;7.50;99.90;;;;;;5085793;28;20155;-46
2023/12/09 02:34:01;;;;;;;58.45;20.60;;;7.50;99.90;;;;;;5083058;28;20182;-44
2023/12/09 02:36:28;;;;;;;50.63;19.70;;;7.60;99.90;;;;;;5072526;28;20032;-44
2023/12/09 02:38:56;;;;;;;46.80;18.92;;;7.50;99.90;;;;;;5089486;28;20040;-44
2023/12/09 02:41:22;;;;;;;;;;;7.50;99.90;;;;;;5089263;28;20114;-46
2023/12/09 02:43:48;;;;;;;52.72;19.17;;;7.50;99.90;;;;;;5090661;28;20387;-43
2023/12/09 02:46:14;;;;;;;54.92;20.50;;;7.50;99.90;;;;;;5087567;28;20715;-45
2023/12/09 02:48:40;;;;;;;48.45;19.52;;;7.50;99.90;;;;;;5087437;28;20032;-48
2023/12/09 02:51:06;;;;;;;49.95;19.77;;;7.50;99.90;;;;;;5089051;28;20125;-44
2023/12/09 02:53:32;;;;;;;53.50;19.80;;;7.50;99.90;;;;;;5072141;28;20043;-45
2023/12/09 02:55:58;;;;;;;54.97;19.63;;;7.50;99.90;;;;;;5087523;28;20032;-45
2023/12/09 02:58:23;;;;;;;53.95;18.92;;;7.50;99.90;;;;;;5087889;28;20035;-44
2023/12/09 03:00:49;;;;;;;54.33;18.98;;;7.50;99.90;;;;;;5086510;28;20040;-45
2023/12/09 03:03:14;;;;;;;48.25;19.58;;;7.50;99.90;;;;;;5086183;28;20488;-45
2023/12/09 03:05:40;;;;;;;48.35;18.15;;;7.50;99.90;;;;;;5071753;28;20043;-43
2023/12/09 03:08:05;;;;;;;44.67;18.55;;;7.60;99.90;;;;;;5087994;28;20113;-46
2023/12/09 03:10:31;;;;;;;42.88;17.60;;;7.50;99.90;;;;;;5072685;28;20040;-44
2023/12/09 03:12:57;;;;;;;47.85;18.55;;;7.50;99.90;;;;;;5091538;28;20036;-44
2023/12/09 03:15:23;;;;;;;53.42;19.25;;;7.50;99.90;;;;;;5089495;28;20396;-43
2023/12/09 03:17:48;;;;;;;47.25;18.63;;;7.50;99.90;;;;;;5088874;28;20043;-43
2023/12/09 03:20:14;;;;;;;38.70;16.80;;;7.50;99.90;;;;;;5087660;28;20109;-44
2023/12/09 03:22:40;;;;;;;54.17;18.10;;;7.50;99.90;;;;;;5086959;28;20036;-43
2023/12/09 03:25:05;;;;;;;54.00;18.70;;;7.40;99.90;;;;;;5089480;28;20454;-44
2023/12/09 03:27:31;;;;;;;41.72;16.98;;;7.50;99.90;;;;;;5088216;28;20040;-43
2023/12/09 03:29:57;;;;;;;44.75;17.23;;;7.50;99.90;;;;;;5087903;28;20052;-47
2023/12/09 03:32:22;;;;;;;48.55;17.98;;;7.50;99.90;;;;;;5086096;28;20081;-45
2023/12/09 03:34:48;;;;;;;45.15;17.67;;;7.50;99.90;;;;;;5085849;28;20154;-44
2023/12/09 03:37:14;;;;;;;48.85;17.40;;;7.40;99.90;;;;;;5084772;28;20043;-45
2023/12/09 03:39:39;;;;;;;44.40;17.60;;;7.50;99.90;;;;;;5086930;28;20474;-44
2023/12/09 03:42:05;;;;;;;47.38;16.67;;;7.40;99.90;;;;;;5083412;28;20409;-47
2023/12/09 03:44:31;;;;;;;44.13;17.15;;;7.40;99.90;;;;;;5085071;28;20043;-46
2023/12/09 03:46:56;;;;;;;41.03;17.20;;;7.40;99.90;;;;;;5087042;28;20348;-44
2023/12/09 03:49:22;;;;;;;46.60;16.95;;;7.40;99.90;;;;;;5088373;28;20047;-44
2023/12/09 03:51:48;;;;;;;42.00;17.33;;;7.40;99.90;;;;;;5086289;28;20051;-45
2023/12/09 03:54:13;;;;;;;42.25;16.85;;;7.50;99.90;;;;;;5088595;28;20082;-45
2023/12/09 03:56:39;;;;;;;39.08;16.75;;;7.50;99.90;;;;;;5087966;28;20036;-48
2023/12/09 03:59:04;;;;;;;41.72;17.15;;;7.40;99.90;;;;;;5086945;28;20036;-44
2023/12/09 04:01:30;;;;;;;50.25;18.10;;;7.40;99.90;;;;;;5087914;28;20424;-46
2023/12/09 04:03:56;;;;;;;46.13;17.02;;;7.40;99.90;;;;;;5088878;28;20036;-44
2023/12/09 04:06:22;;;;;;;44.75;17.58;;;7.40;99.90;;;;;;5086520;28;20064;-44
2023/12/09 04:08:47;;;;;;;50.58;16.83;;;7.40;99.90;;;;;;5089052;28;20067;-44
2023/12/09 04:11:13;;;;;;;49.70;17.15;;;7.50;99.90;;;;;;5086353;28;20084;-44
2023/12/09 04:13:40;;;;;;;49.35;16.88;;;7.40;99.90;;;;;;5088607;28;20048;-44
2023/12/09 04:16:06;;;;;;;46.35;17.55;;;7.40;99.90;;;;;;5088120;28;20489;-43
2023/12/09 04:18:32;;;;;;;43.72;16.27;;;7.40;99.90;;;;;;5088548;28;20044;-44
2023/12/09 04:20:58;;;;;;;47.63;17.10;;;7.40;99.90;;;;;;5085281;28;20377;-43
2023/12/09 04:23:24;;;;;;;39.13;16.40;;;7.40;99.90;;;;;;5088269;28;20099;-44
2023/12/09 04:25:50;;;;;;;48.15;17.08;;;7.40;99.90;;;;;;5084663;28;20079;-44
2023/12/09 04:28:16;;;;;;;47.55;16.58;;;7.40;99.90;;;;;;5088608;28;20059;-44
2023/12/09 04:30:42;;;;;;;40.45;16.20;;;7.40;99.90;;;;;;5086713;28;20512;-45
2023/12/09 04:33:08;;;;;;;43.65;15.90;;;7.30;99.90;;;;;;5089782;28;20040;-44
2023/12/09 04:35:33;;;;;;;45.08;16.92;;;7.40;99.90;;;;;;5090447;28;20078;-46
2023/12/09 04:37:59;;;;;;;35.53;15.98;;;7.30;99.90;;;;;;5091094;28;20036;-45
2023/12/09 04:40:24;;;;;;;40.22;16.20;;;7.40;99.90;;;;;;5087442;28;20492;-47
2023/12/09 04:42:50;;;;;;;41.55;16.75;;;7.40;99.90;;;;;;5089317;28;20043;-44
2023/12/09 04:45:15;;;;;;;41.83;16.92;;;7.40;99.90;;;;;;5089599;28;20493;-45
2023/12/09 04:47:41;;;;;;;39.78;16.17;;;7.40;99.90;;;;;;5066626;28;20162;-44
2023/12/09 04:50:08;;;;;;;46.13;16.75;;;7.30;99.90;;;;;;5079422;28;20480;-45
2023/12/09 04:52:35;;;;;;;44.72;15.95;;;7.40;99.90;;;;;;5086400;28;20067;-45
2023/12/09 04:55:00;;;;;;;36.85;15.82;;;7.40;99.90;;;;;;5090083;28;20044;-45
2023/12/09 04:57:26;;;;;;;32.90;15.52;;;7.30;99.90;;;;;;5087310;28;20036;-44
2023/12/09 04:59:52;;;;;;;52.25;17.23;;;7.40;99.90;;;;;;5087644;28;20443;-43
2023/12/09 05:02:20;;;;;;;37.90;16.35;;;7.30;99.90;;;;;;5088244;28;20036;-44
2023/12/09 05:04:46;;;;;;;39.03;16.63;;;7.30;99.90;;;;;;5089042;28;20051;-44
2023/12/09 05:07:12;;;;;;;44.15;15.52;;;7.30;99.90;;;;;;5091039;28;20059;-43
2023/12/09 05:09:37;;;;;;;39.80;15.57;;;7.30;99.90;;;;;;5089197;28;20192;-45
2023/12/09 05:12:03;;;;;;;40.72;15.55;;;7.40;99.90;;;;;;5085962;28;20044;-44
2023/12/09 05:14:29;;;;;;;40.75;15.85;;;7.30;99.90;;;;;;5086121;28;21348;-45
2023/12/09 05:16:55;;;;;;;49.67;16.90;;;7.30;99.90;;;;;;5087094;28;20040;-44
2023/12/09 05:19:20;;;;;;;43.38;16.33;;;7.40;99.90;;;;;;5091130;28;20042;-44
2023/12/09 05:21:46;;;;;;;43.45;15.80;;;7.30;99.90;;;;;;5087446;28;20435;-44
2023/12/09 05:24:12;;;;;;;39.65;15.27;;;7.40;99.90;;;;;;5088327;28;20040;-43
2023/12/09 05:26:37;;;;;;;36.00;15.00;;;7.40;99.90;;;;;;5087882;28;20048;-43
2023/12/09 05:29:04;;;;;;;39.55;14.63;;;7.30;99.90;;;;;;5069081;28;20568;-43
2023/12/09 05:31:29;;;;;;;41.67;15.50;;;7.30;99.90;;;;;;5087369;28;20056;-44
2023/12/09 05:33:55;;;;;;;42.65;16.45;;;7.30;99.90;;;;;;5080574;28;20421;-44
2023/12/09 05:36:20;;;;;;;36.92;14.65;;;7.30;99.90;;;;;;5088424;28;20044;-43
2023/12/09 05:38:46;;;;;;;50.15;15.07;;;7.30;99.90;;;;;;5084555;28;20072;-44
2023/12/09 05:41:12;;;;;;;43.40;14.63;;;7.20;99.90;;;;;;5087728;28;20142;-43
2023/12/09 05:43:38;;;;;;;42.25;14.43;;;7.30;99.90;;;;;;5090146;28;20036;-44
2023/12/09 05:46:05;;;;;;;34.33;14.88;;;7.20;99.90;;;;;;5088147;28;20036;-44
2023/12/09 05:48:33;;;;;;;38.78;13.90;;;7.20;99.90;;;;;;5087805;28;20044;-44
2023/12/09 05:50:59;;;;;;;36.53;13.88;;;7.20;99.90;;;;;;5088428;28;20040;-45
2023/12/09 05:53:25;;;;;;;33.25;13.98;;;7.20;99.90;;;;;;5086350;28;20032;-44
2023/12/09 05:55:51;;;;;;;42.80;14.20;;;7.20;99.90;;;;;;5083043;28;20538;-44
2023/12/09 05:58:17;;;;;;;34.05;13.88;;;7.20;99.90;;;;;;5088143;28;20054;-44
2023/12/09 06:00:43;;;;;;;35.17;13.60;;;7.20;99.90;;;;;;5088917;28;20123;-44
2023/12/09 06:03:09;;;;;;;35.35;12.75;;;7.20;99.90;;;;;;5093419;28;20044;-43
2023/12/09 06:05:35;;;;;;;35.58;13.30;;;7.20;99.90;;;;;;5092654;28;20051;-44
2023/12/09 06:08:00;;;;;;;39.67;13.30;;;7.20;99.90;;;;;;5093096;28;20139;-44
2023/12/09 06:10:26;;;;;;;42.40;13.40;;;7.20;99.90;;;;;;5092402;28;20036;-44
2023/12/09 06:12:51;;;;;;;37.30;13.27;;;7.20;99.90;;;;;;5091347;28;20077;-44
2023/12/09 06:15:17;;;;;;;36.90;14.32;;;7.20;99.90;;;;;;5093529;28;20040;-44
2023/12/09 06:17:43;;;;;;;37.42;13.23;;;7.20;99.90;;;;;;5093851;28;20048;-44
2023/12/09 06:20:09;;;;;;;33.22;12.63;;;7.20;99.90;;;;;;5090820;28;20123;-43
2023/12/09 06:22:35;;;;;;;36.17;11.60;;;7.20;99.90;;;;;;5091071;28;20063;-44
2023/12/09 06:25:01;;;;;;;31.40;11.68;;;7.10;99.90;;;;;;5093792;28;20040;-44
2023/12/09 06:27:26;;;;;;;37.42;12.20;;;7.10;99.90;;;;;;5092976;28;20409;-44
2023/12/09 06:29:52;;;;;;;35.60;11.20;;;7.10;99.90;;;;;;5092675;28;20036;-43
2023/12/09 06:32:18;;;;;;;31.40;11.50;;;7.10;99.90;;;;;;5091452;28;20047;-47
2023/12/09 06:34:43;;;;;;;37.20;10.90;;;7.10;99.90;;;;;;5091855;28;20048;-47
2023/12/09 06:37:09;;;;;;;31.58;11.48;;;7.00;99.90;;;;;;5091069;28;20131;-44
2023/12/09 06:39:35;;;;;;;36.28;10.45;;;7.00;99.90;;;;;;5089965;28;20697;-45
2023/12/09 06:42:01;;;;;;;29.08;10.35;;;6.90;99.90;;;;;;5074615;28;20066;-45
2023/12/09 06:44:27;;;;;;;25.15;9.55;;;7.00;99.90;;;;;;5090690;28;20062;-44
2023/12/09 06:46:53;;;;;;;29.77;10.40;;;;;;;;;;5091998;28;20039;-45
2023/12/09 06:49:18;;;;;;;27.60;10.05;;;6.80;99.90;;;;;;5090118;28;20047;-45
2023/12/09 06:51:45;;;;;;;24.75;9.30;;;6.80;99.90;;;;;;5090841;28;20524;-44
2023/12/09 06:54:11;;;;;;;25.08;9.27;;;6.70;99.90;;;;;;5091779;28;20404;-47
2023/12/09 06:56:37;;;;;;;23.02;8.80;;;6.70;99.90;;;;;;5089623;28;20051;-43
2023/12/09 06:59:03;;;;;;;27.70;9.48;;;6.60;99.90;;;;;;5092381;28;20067;-45
2023/12/09 07:01:29;;;;;;;25.77;9.52;;;6.50;99.90;;;;;;5089821;28;20457;-44
2023/12/09 07:03:55;;;;;;;26.98;9.18;;;6.40;99.90;;;;;;5088076;28;20042;-45
2023/12/09 07:06:25;;;;;;;24.60;9.38;;;6.50;99.90;;;;;;5089085;28;20040;-44
2023/12/09 07:08:51;;;;;;;33.58;11.20;;;6.50;99.90;;;;;;5085754;28;20456;-45
2023/12/09 07:11:20;;;;;;;26.75;9.90;;;6.60;99.90;;;;;;5088811;28;20465;-45
2023/12/09 07:13:46;;;;;;;33.63;9.60;;;6.30;99.90;;;;;;5089893;28;20062;-44
2023/12/09 07:16:12;;;;;;;25.30;8.48;;;6.30;99.90;;;;;;5085952;28;20036;-43
2023/12/09 07:18:46;;;;;;;30.20;8.73;;;6.30;99.90;;;;;;5089055;28;20048;-45
2023/12/09 07:21:12;;;;;;;23.65;8.18;;;6.20;99.90;;;;;;5088343;28;20071;-45
2023/12/09 07:23:37;;;;;;;32.33;8.35;;;6.20;99.90;;;;;;5090581;28;20097;-43
2023/12/09 07:26:03;;;;;;;30.60;7.93;;;6.20;99.90;;;;;;5093353;28;20455;-45
2023/12/09 07:28:29;;;;;;;24.88;7.43;;;6.20;99.90;;;;;;5089688;28;20505;-43
2023/12/09 07:30:55;;;;;;;23.05;7.88;;;6.20;99.90;;;;;;5086099;28;20060;-45
2023/12/09 07:33:21;;;;;;;20.92;7.20;;;6.20;99.90;;;;;;5087667;28;20123;-44
2023/12/09 07:35:47;;;;;;;26.30;7.65;;;6.20;99.90;;;;;;5090824;28;20048;-44
2023/12/09 07:38:12;;;;;;;26.90;8.05;;;6.10;99.90;;;;;;5088141;28;20184;-44
2023/12/09 07:40:38;;;;;;;22.13;8.07;;;6.10;99.90;;;;;;5090291;28;20039;-43
2023/12/09 07:43:04;;;;;;;17.52;6.63;;;6.10;99.90;;;;;;5089758;28;20430;-45
2023/12/09 07:45:30;;;;;;;22.83;7.93;;;6.20;99.90;;;;;;5089138;28;20044;-43
2023/12/09 07:47:56;;;;;;;29.88;7.43;;;6.20;99.90;;;;;;5088077;28;20033;-43
2023/12/09 07:50:22;;;;;;;20.98;6.63;;;6.20;99.90;;;;;;5083863;28;20429;-44
2023/12/09 07:52:47;;;;;;;18.65;6.90;;;6.20;99.90;;;;;;5090917;28;20051;-44
2023/12/09 07:55:13;;;;;;;21.88;6.30;;;6.20;99.90;;;;;;5089614;28;20051;-44
2023/12/09 07:57:38;;;;;;;25.65;6.45;;;6.20;99.90;;;;;;5087611;28;20044;-44
2023/12/09 08:00:05;;;;;;;22.67;6.75;;;6.20;99.90;;;;;;5083860;28;20681;-44
2023/12/09 08:02:31;;;;;;;19.88;7.15;;;6.20;99.90;;;;;;5081262;28;20068;-44
2023/12/09 08:04:56;;;;;;;26.88;7.53;;;6.20;99.90;;;;;;5085788;28;20121;-43
2023/12/09 08:07:22;;;;;;;20.08;5.82;;;6.20;99.90;;;;;;5087688;28;20051;-44
2023/12/09 08:09:47;;;;;;;22.58;5.68;;;6.20;99.90;;;;;;5086758;28;20504;-44
2023/12/09 08:12:13;;;;;;;20.08;6.10;;;6.20;99.90;;;;;;5086841;28;20050;-45
2023/12/09 08:14:38;;;;;;;22.77;5.95;;;6.20;99.90;;;;;;5086307;28;20497;-44
2023/12/09 08:17:04;;;;;;;18.08;5.72;;;6.30;99.90;;;;;;5088808;28;20076;-46
2023/12/09 08:19:30;;;;;;;20.45;6.03;;;6.30;99.90;;;;;;5085436;28;20474;-45
2023/12/09 08:21:56;;;;;;;17.85;5.32;;;6.30;99.90;;;;;;5083627;28;20614;-46
2023/12/09 08:24:22;;;;;;;13.32;5.03;;;6.30;99.90;;;;;;5085321;28;20055;-47
2023/12/09 08:26:47;;;;;;;17.83;5.07;;;6.30;99.90;;;;;;5090143;28;20032;-43
2023/12/09 08:29:14;;;;;;;18.67;5.00;;;6.40;99.90;;;;;;5065475;28;20035;-46
2023/12/09 08:31:46;;;;;;;26.27;6.28;;;6.40;99.90;;;;;;5085036;28;20038;-46
2023/12/09 08:34:12;;;;;;;18.33;4.97;;;6.50;99.90;;;;;;5086941;28;20040;-44
2023/12/09 08:36:38;;;;;;;17.05;4.95;;;6.50;99.90;;;;;;5087874;28;20042;-43
2023/12/09 08:39:04;;;;;;;14.45;5.00;;;6.50;99.90;;;;;;5086683;28;20035;-45
2023/12/09 08:41:29;;;;;;;18.40;5.22;;;6.50;99.90;;;;;;5085900;28;20061;-45
2023/12/09 08:43:55;;;;;;;21.02;5.22;;;6.50;99.90;;;;;;5085418;28;20047;-47
2023/12/09 08:46:21;;;;;;;20.58;5.05;;;6.60;99.90;;;;;;5069324;28;20052;-46
2023/12/09 08:48:47;;;;;;;15.75;4.60;;;6.60;99.90;;;;;;5084281;28;20507;-44
2023/12/09 08:51:12;;;;;;;17.38;4.63;;;6.70;99.90;;;;;;5067432;28;20064;-45
2023/12/09 08:53:38;;;;;;;17.85;4.18;;;6.70;99.90;;;;;;5088641;28;20079;-45
2023/12/09 08:56:04;;;;;;;16.33;4.47;;;6.70;99.90;;;;;;5085483;28;20553;-44
2023/12/09 08:58:30;;;;;;;22.67;4.85;;;6.80;99.90;;;;;;5086262;28;20116;-45
2023/12/09 09:00:55;;;;;;;18.73;4.60;;;6.80;99.90;;;;;;5080327;28;20561;-48
2023/12/09 09:03:21;;;;;;;18.95;5.50;;;6.80;99.90;;;;;;5082101;28;20497;-48
2023/12/09 09:05:47;;;;;;;13.02;3.45;;;6.90;99.90;;;;;;5083274;28;20481;-44
2023/12/09 09:08:12;;;;;;;16.05;4.03;;;7.00;99.90;;;;;;5074196;28;20051;-46
2023/12/09 09:10:38;;;;;;;19.35;4.55;;;7.00;99.90;;;;;;5087088;28;20032;-44
2023/12/09 09:13:03;;;;;;;14.25;3.45;;;7.00;99.90;;;;;;5088545;28;20051;-44
2023/12/09 09:15:30;;;;;;;15.88;4.28;;;7.00;99.90;;;;;;5088157;28;20521;-45
2023/12/09 09:17:56;;;;;;;19.25;4.30;;;7.00;99.90;;;;;;5087560;28;20128;-44
2023/12/09 09:20:22;;;;;;;19.10;4.13;;;7.10;99.90;;;;;;5087881;28;20134;-46
2023/12/09 09:22:49;;;;;;;17.65;4.50;;;7.10;99.90;;;;;;5086444;28;20113;-48
2023/12/09 09:25:17;;;;;;;14.95;4.15;;;7.20;99.90;;;;;;5086061;28;20054;-44
2023/12/09 09:27:43;;;;;;;15.85;4.40;;;7.20;99.90;;;;;;5072488;28;20126;-44
2023/12/09 09:30:09;;;;;;;15.45;4.53;;;7.30;99.90;;;;;;5090364;28;20072;-46
2023/12/09 09:32:35;;;;;;;16.55;4.47;;;7.40;99.90;;;;;;5086271;28;20052;-48
2023/12/09 09:35:00;;;;;;;15.27;4.13;;;7.40;99.90;;;;;;5070947;28;20074;-46
2023/12/09 09:37:26;;;;;;;15.38;4.18;;;7.50;99.90;;;;;;5092073;28;20043;-45
2023/12/09 09:39:52;;;;;;;14.73;4.80;;;7.50;99.90;;;;;;5094468;28;20469;-46
2023/12/09 09:42:39;;;;;;;18.02;4.63;;;7.60;99.90;;;;;;5094216;28;20044;-46
2023/12/09 09:45:17;;;;;;;14.37;4.67;;;7.60;99.90;;;;;;5092931;28;20058;-47
2023/12/09 09:47:46;;;;;;;15.43;4.10;;;7.60;99.90;;;;;;5095176;28;20313;-45
2023/12/09 09:50:16;;;;;;;13.02;4.18;;;7.70;99.90;;;;;;5094807;28;20051;-44
2023/12/09 09:52:41;;;;;;;19.92;4.60;;;7.70;99.90;;;;;;5092894;28;20124;-43
2023/12/09 09:55:08;;;;;;;13.45;4.00;;;7.70;99.90;;;;;;5091916;28;20043;-44
2023/12/09 09:57:34;;;;;;;16.35;4.10;;;7.70;99.90;;;;;;5093148;28;20047;-44
2023/12/09 10:00:00;;;;;;;13.57;3.92;;;7.70;99.90;;;;;;5093561;28;20032;-44
2023/12/09 10:02:27;;;;;;;14.23;4.15;;;7.80;99.90;;;;;;5091541;28;20036;-44
2023/12/09 10:04:53;;;;;;;16.88;4.38;;;7.80;99.90;;;;;;5091843;28;20071;-44
2023/12/09 10:07:20;;;;;;;12.20;4.20;;;7.80;99.90;;;;;;5093151;28;20430;-48
2023/12/09 10:09:46;;;;;;;14.20;3.80;;;;;;;;;;5093117;28;20044;-43
2023/12/09 10:12:12;;;;;;;15.77;3.83;;;7.90;99.90;;;;;;5093302;28;20040;-45
2023/12/09 10:14:37;;;;;;;10.30;3.70;;;7.90;99.90;;;;;;5092940;28;20489;-45
2023/12/09 10:17:03;;;;;;;14.30;4.20;;;8.00;99.90;;;;;;5094033;28;20044;-45
2023/12/09 10:19:29;;;;;;;12.07;4.57;;;8.00;99.90;;;;;;5093648;28;20036;-44
2023/12/09 10:21:54;;;;;;;11.50;4.18;;;8.00;99.90;;;;;;5093695;28;20063;-45
2023/12/09 10:24:20;;;;;;;11.80;3.53;;;8.00;99.90;;;;;;5093553;28;20051;-46
2023/12/09 10:26:46;;;;;;;13.98;3.70;;;8.10;99.90;;;;;;5092792;28;20166;-45
2023/12/09 10:29:12;;;;;;;11.98;3.83;;;8.10;99.90;;;;;;5092021;28;20044;-48
2023/12/09 10:31:38;;;;;;;10.93;4.10;;;8.00;99.90;;;;;;5092611;28;20404;-48
2023/12/09 10:34:03;;;;;;;16.13;4.45;;;8.00;99.90;;;;;;5080492;28;20048;-45
2023/12/09 10:36:30;;;;;;;10.55;3.40;;;8.00;99.90;;;;;;5091782;28;20044;-43
2023/12/09 10:38:56;;;;;;;10.73;3.42;;;8.00;99.90;;;;;;5092259;28;20067;-44
2023/12/09 10:41:25;;;;;;;13.23;3.90;;;8.00;99.90;;;;;;5093037;28;20048;-44
2023/12/09 10:43:52;;;;;;;;;;;8.00;99.90;;;;;;5090638;28;20121;-44
2023/12/09 10:46:17;;;;;;;13.32;3.92;;;8.00;99.90;;;;;;5089736;28;19928;-44
2023/12/09 10:48:43;;;;;;;9.52;3.40;;;7.90;99.90;;;;;;5088168;28;20032;-44
2023/12/09 10:51:09;;;;;;;10.40;3.92;;;7.90;99.90;;;;;;5091150;28;20126;-45
2023/12/09 10:53:35;;;;;;;8.98;3.22;;;7.90;99.90;;;;;;5090630;28;20487;-45
2023/12/09 10:56:00;;;;;;;11.65;3.72;;;7.90;99.90;;;;;;5094481;28;20121;-44
2023/12/09 10:58:27;;;;;;;9.27;3.20;;;7.90;99.90;;;;;;5090887;28;20091;-44
2023/12/09 11:00:56;;;;;;;9.63;3.20;;;7.90;99.90;;;;;;5092439;28;20035;-45
2023/12/09 11:03:23;;;;;;;9.13;3.38;;;8.00;99.90;;;;;;5091599;28;20050;-44
2023/12/09 11:05:51;;;;;;;10.38;3.55;;;8.00;99.90;;;;;;5091749;28;20121;-46
2023/12/09 11:08:18;;;;;;;9.27;3.50;;;8.00;99.90;;;;;;5091635;28;20043;-46
2023/12/09 11:10:44;;;;;;;14.48;3.65;;;8.00;99.90;;;;;;5087893;28;20081;-44
2023/12/09 11:13:11;;;;;;;9.30;3.10;;;8.10;99.90;;;;;;5090569;28;20055;-45
2023/12/09 11:15:37;;;;;;;11.95;2.92;;;8.10;99.90;;;;;;5090367;28;20036;-44
2023/12/09 11:18:10;;;;;;;11.23;3.58;;;8.10;99.90;;;;;;5091325;28;20499;-45
2023/12/09 11:20:40;;;;;;;10.80;2.40;;;8.10;99.90;;;;;;5090601;28;20082;-44
2023/12/09 11:23:12;;;;;;;15.63;2.92;;;8.20;99.90;;;;;;5087725;28;20040;-45
2023/12/09 11:25:42;;;;;;;7.47;2.97;;;8.20;99.90;;;;;;5090249;28;20044;-45
2023/12/09 11:28:13;;;;;;;7.38;2.70;;;8.20;99.90;;;;;;5088702;28;20036;-45
2023/12/09 11:30:41;;;;;;;12.57;3.08;;;8.20;99.90;;;;;;5089869;28;20064;-45
2023/12/09 11:33:08;;;;;;;9.27;3.05;;;8.20;99.90;;;;;;5088859;28;20051;-44
2023/12/09 11:35:37;;;;;;;9.48;2.90;;;8.20;99.90;;;;;;5091274;28;20090;-45
2023/12/09 11:38:08;;;;;;;11.52;2.65;;;8.20;99.90;;;;;;5092416;28;20040;-44
2023/12/09 11:40:34;;;;;;;17.60;4.10;;;8.20;99.90;;;;;;5089795;28;20040;-45
2023/12/09 11:43:08;;;;;;;9.30;2.97;;;8.20;99.90;;;;;;5090266;28;20542;-45
2023/12/09 11:45:36;;;;;;;10.07;3.10;;;8.20;99.90;;;;;;5090182;28;20036;-45
2023/12/09 11:48:05;;;;;;;8.85;3.08;;;8.20;99.90;;;;;;5090142;28;20486;-45
2023/12/09 11:50:30;;;;;;;8.10;2.58;;;8.20;99.90;;;;;;5089926;28;20039;-46
2023/12/09 11:52:56;;;;;;;8.40;2.40;;;8.20;99.90;;;;;;5088402;28;20453;-45
2023/12/09 11:55:21;;;;;;;9.38;2.58;;;8.20;99.90;;;;;;5089100;28;20111;-48
2023/12/09 11:57:47;;;;;;;8.40;2.97;;;8.20;99.90;;;;;;5091625;28;20580;-49
2023/12/09 12:00:13;;;;;;;11.10;2.92;;;8.30;99.90;;;;;;5090226;28;20052;-48
2023/12/09 12:02:40;;;;;;;11.85;3.00;;;8.30;99.90;;;;;;5092459;28;20048;-44
2023/12/09 12:05:08;;;;;;;11.07;3.15;;;8.30;99.90;;;;;;5093650;28;20111;-44
2023/12/09 12:07:38;;;;;;;9.13;3.15;;;8.30;99.90;;;;;;5092786;28;20100;-47
2023/12/09 12:10:05;;;;;;;8.23;2.70;;;8.30;99.90;;;;;;5090077;28;20051;-45
2023/12/09 12:12:31;;;;;;;9.35;2.35;;;8.30;99.90;;;;;;5074443;28;20036;-44
2023/12/09 12:14:57;;;;;;;6.95;2.45;;;8.30;99.90;;;;;;5072258;28;20099;-45
2023/12/09 12:17:23;;;;;;;8.88;2.53;;;8.20;99.90;;;;;;5072512;28;20040;-44
2023/12/09 12:19:49;;;;;;;9.23;2.40;;;8.20;99.90;;;;;;5087693;28;20174;-44
2023/12/09 12:22:15;;;;;;;10.93;2.38;;;8.20;99.90;;;;;;5091124;28;20126;-44
2023/12/09 12:24:44;;;;;;;7.53;2.40;;;8.20;99.90;;;;;;5092705;28;20040;-45
2023/12/09 12:27:10;;;;;;;12.32;2.30;;;8.30;99.90;;;;;;5092168;28;20055;-45
2023/12/09 12:29:40;;;;;;;9.02;2.20;;;8.30;99.90;;;;;;5092076;28;20048;-44
2023/12/09 12:32:07;;;;;;;9.85;2.50;;;8.20;99.90;;;;;;5082993;28;20037;-47
2023/12/09 12:34:33;;;;;;;7.47;2.63;;;8.30;99.90;;;;;;5084035;28;20389;-43
2023/12/09 12:36:59;;;;;;;11.70;2.97;;;8.30;99.90;;;;;;5090122;28;20059;-44
2023/12/09 12:39:24;;;;;;;10.18;2.88;;;8.30;99.90;;;;;;5092300;28;20040;-49